Time;durP1;ratioP1;P1;durP2;ratioP2;P2;SDS_P1;SDS_P2;PMS_P1;PMS_P2;Temp;Humidity;BMP_temperature;BMP_pressure;BME280_temperature;BME280_humidity;BME280_pressure;Samples;Min_cycle;Max_cycle;Signal;HPM_P1;HPM_P2
2023/12/20 00:00:31;;;;;;;7.07;5.97;;;6.60;99.90;;;;;;2075745;28;20660;-76
2023/12/20 00:01:31;;;;;;;7.63;6.07;;;6.60;99.90;;;;;;2078717;28;20052;-75
2023/12/20 00:02:32;;;;;;;7.70;6.00;;;6.60;99.90;;;;;;2076915;28;20029;-76
2023/12/20 00:03:32;;;;;;;8.02;5.90;;;6.50;99.90;;;;;;2077667;28;20060;-77
2023/12/20 00:04:33;;;;;;;7.50;5.90;;;6.50;99.90;;;;;;2079892;28;20696;-76
2023/12/20 00:05:34;;;;;;;9.07;6.10;;;6.50;99.90;;;;;;2077437;28;20025;-76
2023/12/20 00:06:35;;;;;;;7.18;5.82;;;6.50;99.90;;;;;;2076597;28;20369;-77
2023/12/20 00:07:35;;;;;;;7.82;5.68;;;6.50;99.90;;;;;;2078869;28;20084;-77
2023/12/20 00:08:36;;;;;;;8.13;5.93;;;6.50;99.90;;;;;;2078161;28;20033;-76
2023/12/20 00:09:36;;;;;;;6.55;5.68;;;6.50;99.90;;;;;;2077272;28;20453;-75
2023/12/20 00:10:37;;;;;;;6.82;5.50;;;6.50;99.90;;;;;;2079217;28;20465;-76
2023/12/20 00:11:38;;;;;;;7.70;6.05;;;6.50;99.90;;;;;;2074921;28;20038;-77
2023/12/20 00:12:38;;;;;;;6.40;5.55;;;6.50;99.90;;;;;;2074642;28;20706;-77
2023/12/20 00:13:39;;;;;;;7.13;5.78;;;6.50;99.90;;;;;;2076178;28;20021;-76
2023/12/20 00:14:39;;;;;;;6.88;5.47;;;6.50;99.90;;;;;;2075132;28;20053;-76
2023/12/20 00:15:40;;;;;;;6.53;5.40;;;6.50;99.90;;;;;;2078776;28;20036;-76
2023/12/20 00:16:40;;;;;;;6.85;5.20;;;6.50;99.90;;;;;;2089727;28;20067;-75
2023/12/20 00:17:41;;;;;;;6.68;5.22;;;6.40;99.90;;;;;;2083934;28;20024;-77
2023/12/20 00:18:41;;;;;;;6.80;5.10;;;6.50;99.90;;;;;;2074832;28;20898;-77
2023/12/20 00:19:42;;;;;;;8.75;5.70;;;6.40;99.90;;;;;;2078856;28;20465;-76
2023/12/20 00:20:42;;;;;;;6.53;5.22;;;6.50;99.90;;;;;;2078713;28;20414;-76
2023/12/20 00:21:43;;;;;;;7.55;5.13;;;6.50;99.90;;;;;;2075468;28;20491;-75
2023/12/20 00:22:43;;;;;;;5.78;4.82;;;6.50;99.90;;;;;;2079342;28;20440;-75
2023/12/20 00:23:44;;;;;;;6.25;5.00;;;6.40;99.90;;;;;;2077132;28;20510;-76
2023/12/20 00:24:44;;;;;;;5.75;4.82;;;6.40;99.90;;;;;;2075245;28;20060;-75
2023/12/20 00:25:45;;;;;;;6.93;5.10;;;6.40;99.90;;;;;;2079126;28;20104;-76
2023/12/20 00:26:45;;;;;;;6.38;5.00;;;6.40;99.90;;;;;;2086893;28;20516;-76
2023/12/20 00:27:46;;;;;;;5.85;4.80;;;6.40;99.90;;;;;;2086551;28;20425;-74
2023/12/20 00:28:46;;;;;;;6.03;4.90;;;6.40;99.90;;;;;;2083328;28;20204;-76
2023/12/20 00:29:49;;;;;;;5.65;4.80;;;6.40;99.90;;;;;;2070621;28;20055;-76
2023/12/20 00:30:50;;;;;;;7.70;5.18;;;6.40;99.90;;;;;;2070527;28;20029;-73
2023/12/20 00:31:50;;;;;;;6.53;5.10;;;6.30;99.90;;;;;;2073607;28;20410;-75
2023/12/20 00:32:51;;;;;;;6.20;4.80;;;6.30;99.90;;;;;;2075198;28;20025;-75
2023/12/20 00:33:51;;;;;;;4.97;4.20;;;6.30;99.90;;;;;;2079318;28;20028;-75
2023/12/20 00:34:52;;;;;;;5.53;4.47;;;6.30;99.90;;;;;;2073955;28;20041;-76
2023/12/20 00:35:52;;;;;;;5.53;4.60;;;6.30;99.90;;;;;;2078305;28;20025;-75
2023/12/20 00:36:54;;;;;;;5.32;4.57;;;6.30;99.90;;;;;;2086848;28;20150;-75
2023/12/20 00:37:55;;;;;;;5.57;4.57;;;6.30;99.90;;;;;;2075472;28;20057;-75
2023/12/20 00:38:55;;;;;;;5.28;4.47;;;6.30;99.90;;;;;;2078337;28;20459;-75
2023/12/20 00:39:56;;;;;;;5.80;4.68;;;6.30;99.90;;;;;;2078397;28;20033;-75
2023/12/20 00:40:56;;;;;;;6.03;4.70;;;6.20;99.90;;;;;;2075429;28;20026;-75
2023/12/20 00:41:57;;;;;;;5.43;4.20;;;6.30;99.90;;;;;;2078220;28;20266;-78
2023/12/20 00:42:57;;;;;;;5.45;4.53;;;6.30;99.90;;;;;;2075644;28;20276;-76
2023/12/20 00:43:58;;;;;;;4.97;4.32;;;6.30;99.90;;;;;;2076286;28;20519;-79
2023/12/20 00:44:59;;;;;;;4.90;4.20;;;6.20;99.90;;;;;;2078553;28;20097;-79
2023/12/20 00:46:00;;;;;;;5.68;4.03;;;6.20;99.90;;;;;;2079154;28;20028;-78
2023/12/20 00:47:01;;;;;;;5.38;4.30;;;6.20;99.90;;;;;;2076591;28;20049;-79
2023/12/20 00:48:01;;;;;;;5.20;4.25;;;6.20;99.90;;;;;;2078709;28;20029;-79
2023/12/20 00:49:02;;;;;;;5.03;4.45;;;6.20;99.90;;;;;;2077850;28;20041;-79
2023/12/20 00:50:03;;;;;;;5.97;4.40;;;6.20;99.90;;;;;;2076633;28;20033;-79
2023/12/20 00:51:04;;;;;;;5.07;4.05;;;6.20;99.90;;;;;;2076705;28;20056;-79
2023/12/20 00:52:04;;;;;;;4.38;3.97;;;6.10;99.90;;;;;;2075532;28;20028;-79
2023/12/20 00:53:05;;;;;;;4.35;3.83;;;6.10;99.90;;;;;;2076020;28;20552;-79
2023/12/20 00:54:06;;;;;;;4.55;4.00;;;6.10;99.90;;;;;;2076513;28;20026;-79
2023/12/20 00:55:07;;;;;;;6.30;4.30;;;6.10;99.90;;;;;;2075780;28;20459;-78
2023/12/20 00:56:08;;;;;;;4.97;4.05;;;6.10;99.90;;;;;;2075585;28;20169;-79
2023/12/20 00:57:08;;;;;;;4.88;4.07;;;6.10;99.90;;;;;;2079215;28;20589;-78
2023/12/20 00:58:09;;;;;;;5.65;3.92;;;6.10;99.90;;;;;;2075326;28;20098;-79
2023/12/20 00:59:10;;;;;;;4.78;3.95;;;6.20;99.90;;;;;;2082882;28;20041;-80
2023/12/20 01:00:13;;;;;;;4.80;3.80;;;6.10;99.90;;;;;;2086698;28;20080;-81
2023/12/20 01:01:13;;;;;;;4.57;4.00;;;6.10;99.90;;;;;;2077743;28;20044;-79
2023/12/20 01:02:14;;;;;;;4.43;3.70;;;6.10;99.90;;;;;;2075938;28;20037;-78
2023/12/20 01:03:15;;;;;;;5.07;4.05;;;6.10;99.90;;;;;;2075377;28;20120;-79
2023/12/20 01:04:15;;;;;;;4.28;3.67;;;6.10;99.90;;;;;;2086145;28;20016;-78
2023/12/20 01:05:17;;;;;;;3.95;3.55;;;6.10;99.90;;;;;;2083114;28;20032;-80
2023/12/20 01:06:17;;;;;;;4.65;3.85;;;6.10;99.90;;;;;;2086605;28;20029;-79
2023/12/20 01:07:18;;;;;;;5.13;3.72;;;6.10;99.90;;;;;;2078273;28;20021;-80
2023/12/20 01:08:19;;;;;;;4.18;3.50;;;6.10;99.90;;;;;;2074365;28;20049;-77
2023/12/20 01:09:23;;;;;;;4.45;3.63;;;6.10;99.90;;;;;;2086705;28;20040;-78
2023/12/20 01:10:23;;;;;;;4.53;3.70;;;6.10;99.90;;;;;;2075418;28;20086;-78
2023/12/20 01:11:24;;;;;;;4.75;3.80;;;6.10;99.90;;;;;;2082406;28;20398;-78
2023/12/20 01:12:24;;;;;;;4.10;3.58;;;6.10;99.90;;;;;;2078604;28;20443;-79
2023/12/20 01:13:25;;;;;;;3.72;3.25;;;6.10;99.90;;;;;;2079254;28;20494;-79
2023/12/20 01:14:25;;;;;;;4.43;3.40;;;6.10;99.90;;;;;;2075242;28;20030;-79
2023/12/20 01:15:26;;;;;;;4.20;3.50;;;6.10;99.90;;;;;;2075087;28;20057;-79
2023/12/20 01:16:26;;;;;;;4.43;3.40;;;6.10;99.90;;;;;;2079241;28;20025;-79
2023/12/20 01:17:27;;;;;;;4.65;3.45;;;6.10;99.90;;;;;;2079256;28;20021;-79
2023/12/20 01:18:27;;;;;;;3.80;3.40;;;6.00;99.90;;;;;;2076264;28;20022;-79
2023/12/20 01:19:29;;;;;;;3.58;3.20;;;6.10;99.90;;;;;;2077401;28;20033;-79
2023/12/20 01:20:30;;;;;;;4.80;3.60;;;6.00;99.90;;;;;;2078228;28;20095;-80
2023/12/20 01:21:30;;;;;;;4.38;3.53;;;6.10;99.90;;;;;;2076436;28;20030;-79
2023/12/20 01:22:31;;;;;;;5.13;3.80;;;6.10;99.90;;;;;;2077840;28;20029;-79
2023/12/20 01:23:32;;;;;;;3.55;2.97;;;6.00;99.90;;;;;;2079196;28;20371;-79
2023/12/20 01:24:32;;;;;;;3.90;3.13;;;6.10;99.90;;;;;;2076942;28;20040;-79
2023/12/20 01:25:33;;;;;;;3.88;3.42;;;6.00;99.90;;;;;;2077724;28;20415;-79
2023/12/20 01:26:34;;;;;;;3.20;2.90;;;6.00;99.90;;;;;;2074166;28;20539;-78
2023/12/20 01:27:34;;;;;;;3.35;2.92;;;6.00;99.90;;;;;;2074379;28;20033;-79
2023/12/20 01:28:35;;;;;;;4.22;3.38;;;6.00;99.90;;;;;;2075196;28;20032;-78
2023/12/20 01:29:35;;;;;;;3.45;2.90;;;6.00;99.90;;;;;;2075118;28;20482;-77
2023/12/20 01:30:36;;;;;;;3.65;3.00;;;6.00;99.90;;;;;;2076372;28;20060;-80
2023/12/20 01:31:36;;;;;;;3.40;3.10;;;6.00;99.90;;;;;;2073907;28;20458;-79
2023/12/20 01:32:37;;;;;;;3.53;3.03;;;6.00;99.90;;;;;;2076258;28;20140;-79
2023/12/20 01:33:38;;;;;;;3.53;3.00;;;6.00;99.90;;;;;;2078876;28;20074;-78
2023/12/20 01:34:38;;;;;;;3.10;2.70;;;6.00;99.90;;;;;;2077327;28;20167;-78
2023/12/20 01:35:39;;;;;;;3.55;3.00;;;6.00;99.90;;;;;;2076908;28;20451;-79
2023/12/20 01:36:39;;;;;;;3.60;3.00;;;6.00;99.90;;;;;;2079047;28;20482;-79
2023/12/20 01:37:40;;;;;;;3.58;3.03;;;6.00;99.90;;;;;;2085171;28;20063;-79
2023/12/20 01:38:40;;;;;;;4.88;2.97;;;6.00;99.90;;;;;;2079717;28;20541;-78
2023/12/20 01:39:41;;;;;;;3.55;2.63;;;5.90;99.90;;;;;;2079246;28;20041;-78
2023/12/20 01:40:41;;;;;;;3.45;2.85;;;6.00;99.90;;;;;;2077689;28;20029;-78
2023/12/20 01:41:42;;;;;;;3.17;2.75;;;6.00;99.90;;;;;;2076354;28;20051;-80
2023/12/20 01:42:43;;;;;;;3.33;3.03;;;6.00;99.90;;;;;;2075331;28;20094;-79
2023/12/20 01:43:43;;;;;;;3.63;2.88;;;6.00;99.90;;;;;;2075284;28;20025;-78
2023/12/20 01:44:44;;;;;;;3.83;3.08;;;5.90;99.90;;;;;;2078919;28;20506;-78
2023/12/20 01:45:44;;;;;;;3.38;3.08;;;5.90;99.90;;;;;;2077902;28;20025;-78
2023/12/20 01:46:46;;;;;;;3.85;2.88;;;5.90;99.90;;;;;;2077469;28;20041;-78
2023/12/20 01:47:47;;;;;;;4.63;3.20;;;5.90;99.90;;;;;;2076710;28;20065;-78
2023/12/20 01:48:48;;;;;;;5.03;3.00;;;5.90;99.90;;;;;;2080575;28;20033;-78
2023/12/20 01:49:49;;;;;;;3.45;2.55;;;5.90;99.90;;;;;;2080124;28;20066;-78
2023/12/20 01:50:51;;;;;;;2.80;2.60;;;5.90;99.90;;;;;;2076270;28;20411;-78
2023/12/20 01:51:52;;;;;;;2.75;2.55;;;5.90;99.90;;;;;;2071783;28;20101;-76
2023/12/20 01:52:56;;;;;;;2.60;2.40;;;5.90;99.90;;;;;;2079533;28;20407;-79
2023/12/20 01:53:58;;;;;;;3.08;2.78;;;5.90;99.90;;;;;;2060085;28;20030;-78
2023/12/20 01:55:02;;;;;;;2.63;2.42;;;5.90;99.90;;;;;;2068256;28;20559;-78
2023/12/20 01:56:04;;;;;;;2.90;2.60;;;5.90;99.90;;;;;;2080589;28;20033;-79
2023/12/20 01:57:06;;;;;;;3.03;2.50;;;5.80;99.90;;;;;;2085272;28;20025;-78
2023/12/20 01:58:09;;;;;;;2.85;2.63;;;5.80;99.90;;;;;;2085984;28;20493;-80
2023/12/20 01:59:09;;;;;;;3.03;2.63;;;5.80;99.90;;;;;;2080424;28;20037;-79
2023/12/20 02:00:11;;;;;;;2.85;2.65;;;5.80;99.90;;;;;;2078846;28;20403;-79
2023/12/20 02:01:13;;;;;;;3.13;2.60;;;5.80;99.90;;;;;;2078209;28;20675;-81
2023/12/20 02:02:14;;;;;;;2.78;2.58;;;5.80;99.90;;;;;;2079813;28;20053;-80
2023/12/20 02:03:16;;;;;;;2.60;2.40;;;5.80;99.90;;;;;;2078858;28;20104;-79
2023/12/20 02:04:17;;;;;;;3.80;2.70;;;5.80;99.90;;;;;;2077540;28;20531;-77
2023/12/20 02:05:17;;;;;;;2.83;2.10;;;5.80;99.90;;;;;;2076204;28;20037;-80
2023/12/20 02:06:19;;;;;;;2.55;2.35;;;5.80;99.90;;;;;;2079945;28;20021;-78
2023/12/20 02:07:20;;;;;;;3.15;2.40;;;5.80;99.90;;;;;;2076884;28;20256;-80
2023/12/20 02:08:21;;;;;;;2.50;2.30;;;5.80;99.90;;;;;;2079609;28;20044;-78
2023/12/20 02:09:22;;;;;;;2.50;2.30;;;5.70;99.90;;;;;;2079864;28;20570;-78
2023/12/20 02:10:24;;;;;;;2.60;2.30;;;5.70;99.90;;;;;;2076475;28;20718;-76
2023/12/20 02:11:25;;;;;;;2.38;2.13;;;5.80;99.90;;;;;;2072779;28;20036;-78
2023/12/20 02:12:26;;;;;;;2.92;2.10;;;5.80;99.90;;;;;;2080236;28;20437;-80
2023/12/20 02:13:26;;;;;;;3.03;2.17;;;5.80;99.90;;;;;;2076582;28;20038;-78
2023/12/20 02:14:27;;;;;;;2.42;2.20;;;5.80;99.90;;;;;;2080161;28;20078;-80
2023/12/20 02:15:27;;;;;;;3.05;2.42;;;5.70;99.90;;;;;;2080470;28;20162;-78
2023/12/20 02:16:28;;;;;;;2.30;2.10;;;5.80;99.90;;;;;;2076801;28;20543;-79
2023/12/20 02:17:29;;;;;;;2.30;2.10;;;5.80;99.90;;;;;;2078996;28;20040;-79
2023/12/20 02:18:30;;;;;;;2.30;2.10;;;5.80;99.90;;;;;;2071455;28;20048;-80
2023/12/20 02:19:31;;;;;;;1.98;1.88;;;5.80;99.90;;;;;;2076593;28;20029;-80
2023/12/20 02:20:32;;;;;;;3.05;2.08;;;5.70;99.90;;;;;;2070401;28;20500;-80
2023/12/20 02:21:34;;;;;;;2.00;1.90;;;5.70;99.90;;;;;;2071498;28;20025;-79
2023/12/20 02:22:34;;;;;;;3.28;2.20;;;5.70;99.90;;;;;;2077134;28;20033;-78
2023/12/20 02:23:35;;;;;;;2.38;2.17;;;5.70;99.90;;;;;;2082352;28;20029;-79
2023/12/20 02:24:35;;;;;;;2.10;1.90;;;5.70;99.90;;;;;;2079924;28;20078;-78
2023/12/20 02:25:37;;;;;;;1.80;1.70;;;5.70;99.90;;;;;;2083637;28;20368;-78
2023/12/20 02:26:38;;;;;;;2.30;1.92;;;5.70;99.90;;;;;;2083853;28;20033;-78
2023/12/20 02:27:39;;;;;;;1.88;1.77;;;5.70;99.90;;;;;;2083917;28;20036;-78
2023/12/20 02:28:40;;;;;;;2.08;1.90;;;5.80;99.90;;;;;;2086088;28;20495;-79
2023/12/20 02:29:40;;;;;;;2.10;1.90;;;5.70;99.90;;;;;;2085736;28;20020;-78
2023/12/20 02:30:41;;;;;;;2.55;1.83;;;5.70;99.90;;;;;;2086680;28;20089;-80
2023/12/20 02:31:42;;;;;;;4.45;2.00;;;5.70;99.90;;;;;;2077975;28;20041;-79
2023/12/20 02:32:42;;;;;;;2.45;1.90;;;5.70;99.90;;;;;;2069594;28;20030;-79
2023/12/20 02:33:43;;;;;;;3.22;2.00;;;5.70;99.90;;;;;;2079476;28;20477;-81
2023/12/20 02:34:43;;;;;;;2.08;1.90;;;5.70;99.90;;;;;;2076383;28;20068;-79
2023/12/20 02:35:44;;;;;;;1.92;1.73;;;5.70;99.90;;;;;;2078215;28;20116;-79
2023/12/20 02:36:45;;;;;;;1.90;1.80;;;5.70;99.90;;;;;;2077207;28;20422;-79
2023/12/20 02:37:45;;;;;;;2.03;1.80;;;5.70;99.90;;;;;;2071508;28;20022;-79
2023/12/20 02:38:46;;;;;;;1.83;1.70;;;5.70;99.90;;;;;;2070105;28;20025;-78
2023/12/20 02:39:47;;;;;;;2.13;1.70;;;5.70;99.90;;;;;;2068377;28;20030;-78
2023/12/20 02:40:47;;;;;;;2.08;1.80;;;5.70;99.90;;;;;;2079967;28;20041;-72
2023/12/20 02:41:48;;;;;;;1.80;1.70;;;5.70;99.90;;;;;;2083118;28;20064;-72
2023/12/20 02:42:49;;;;;;;1.73;1.63;;;5.70;99.90;;;;;;2076858;28;20466;-71
2023/12/20 02:43:49;;;;;;;2.00;1.80;;;5.70;99.90;;;;;;2077449;28;20040;-71
2023/12/20 02:44:50;;;;;;;2.13;1.92;;;5.70;99.90;;;;;;2078800;28;20021;-71
2023/12/20 02:45:50;;;;;;;3.42;1.80;;;5.70;99.90;;;;;;2076245;28;20120;-72
2023/12/20 02:46:51;;;;;;;2.22;1.80;;;5.70;99.90;;;;;;2080556;28;20088;-72
2023/12/20 02:47:52;;;;;;;2.20;2.00;;;5.70;99.90;;;;;;2076704;28;20044;-72
2023/12/20 02:48:52;;;;;;;1.95;1.85;;;5.70;99.90;;;;;;2084308;28;20029;-71
2023/12/20 02:49:53;;;;;;;2.05;1.88;;;5.70;99.90;;;;;;2088344;28;20049;-72
2023/12/20 02:50:54;;;;;;;1.90;1.80;;;5.70;99.90;;;;;;2079151;28;20151;-72
2023/12/20 02:51:55;;;;;;;1.88;1.77;;;5.70;99.90;;;;;;2071181;28;20029;-72
2023/12/20 02:52:55;;;;;;;1.88;1.77;;;5.70;99.90;;;;;;2080239;28;20022;-72
2023/12/20 02:53:56;;;;;;;1.77;1.67;;;5.70;99.90;;;;;;2080346;28;20023;-72
2023/12/20 02:54:56;;;;;;;2.20;2.00;;;5.70;99.90;;;;;;2083646;28;20173;-71
2023/12/20 02:55:57;;;;;;;1.90;1.70;;;5.70;99.90;;;;;;2079188;28;20049;-72
2023/12/20 02:56:58;;;;;;;1.85;1.75;;;5.70;99.90;;;;;;2079423;28;20033;-72
2023/12/20 02:57:58;;;;;;;2.03;1.83;;;5.70;99.90;;;;;;2075095;28;20110;-72
2023/12/20 02:58:58;;;;;;;1.80;1.70;;;5.70;99.90;;;;;;2076214;28;20027;-72
2023/12/20 02:59:59;;;;;;;1.98;1.80;;;5.70;99.90;;;;;;2079627;28;20033;-72
2023/12/20 03:01:00;;;;;;;1.88;1.73;;;5.70;99.90;;;;;;2076609;28;20034;-72
2023/12/20 03:02:00;;;;;;;2.33;1.88;;;5.70;99.90;;;;;;2079358;28;20053;-71
2023/12/20 03:03:01;;;;;;;2.80;1.85;;;5.70;99.90;;;;;;2087362;28;20039;-71
2023/12/20 03:04:01;;;;;;;1.90;1.80;;;5.70;99.90;;;;;;2084328;28;20023;-72
2023/12/20 03:05:02;;;;;;;2.10;1.90;;;5.70;99.90;;;;;;2079130;28;20017;-71
2023/12/20 03:06:03;;;;;;;1.80;1.70;;;5.70;99.90;;;;;;2087641;28;20498;-72
2023/12/20 03:07:03;;;;;;;3.22;1.70;;;5.70;99.90;;;;;;2080587;28;20029;-71
2023/12/20 03:08:04;;;;;;;2.05;1.85;;;5.70;99.90;;;;;;2082139;28;20108;-72
2023/12/20 03:09:05;;;;;;;1.80;1.70;;;5.60;99.90;;;;;;2085984;28;20021;-72
2023/12/20 03:10:07;;;;;;;2.00;1.80;;;5.60;99.90;;;;;;2079136;28;20087;-71
2023/12/20 03:11:08;;;;;;;2.10;1.80;;;5.70;99.90;;;;;;2076789;28;20061;-72
2023/12/20 03:12:08;;;;;;;1.95;1.80;;;5.70;99.90;;;;;;2078312;28;20368;-73
2023/12/20 03:13:09;;;;;;;1.77;1.67;;;5.70;99.90;;;;;;2079740;28;20037;-72
2023/12/20 03:14:09;;;;;;;1.75;1.63;;;5.70;99.90;;;;;;2077701;28;20160;-71
2023/12/20 03:15:10;;;;;;;2.20;1.67;;;5.70;99.90;;;;;;2078191;28;20059;-71
2023/12/20 03:16:12;;;;;;;1.98;1.80;;;5.60;99.90;;;;;;2079706;28;20126;-72
2023/12/20 03:17:12;;;;;;;2.35;2.00;;;5.60;99.90;;;;;;2077902;28;20038;-71
2023/12/20 03:18:13;;;;;;;3.90;2.00;;;5.60;99.90;;;;;;2077056;28;20047;-71
2023/12/20 03:19:13;;;;;;;2.38;1.80;;;5.60;99.90;;;;;;2079032;28;20036;-72
2023/12/20 03:20:14;;;;;;;1.80;1.70;;;5.60;99.90;;;;;;2085498;28;20039;-72
2023/12/20 03:21:14;;;;;;;1.80;1.70;;;5.60;99.90;;;;;;2087226;28;20040;-72
2023/12/20 03:22:15;;;;;;;2.08;1.83;;;5.60;99.90;;;;;;2076573;28;20724;-73
2023/12/20 03:23:16;;;;;;;2.22;1.75;;;5.60;99.90;;;;;;2078976;28;20029;-72
2023/12/20 03:24:16;;;;;;;2.65;1.95;;;5.60;99.90;;;;;;2078601;28;20021;-71
2023/12/20 03:25:17;;;;;;;2.28;1.70;;;5.60;99.90;;;;;;2077172;28;20120;-72
2023/12/20 03:26:17;;;;;;;3.08;2.03;;;5.60;99.90;;;;;;2079764;28;20026;-72
2023/12/20 03:27:18;;;;;;;2.10;1.80;;;5.60;99.90;;;;;;2078110;28;20111;-72
2023/12/20 03:28:19;;;;;;;2.00;1.80;;;5.60;99.90;;;;;;2076430;28;20064;-72
2023/12/20 03:29:19;;;;;;;3.85;1.83;;;5.60;99.90;;;;;;2075202;28;20210;-73
2023/12/20 03:30:20;;;;;;;2.05;1.80;;;5.60;99.90;;;;;;2078634;28;20025;-72
2023/12/20 03:31:21;;;;;;;2.00;1.80;;;5.60;99.90;;;;;;2077057;28;20029;-72
2023/12/20 03:32:22;;;;;;;2.63;1.95;;;5.60;99.90;;;;;;2070619;28;20486;-72
2023/12/20 03:33:22;;;;;;;2.22;1.80;;;5.60;99.90;;;;;;2077291;28;20069;-72
2023/12/20 03:34:23;;;;;;;1.80;1.70;;;5.60;99.90;;;;;;2079160;28;20029;-72
2023/12/20 03:35:23;;;;;;;1.70;1.60;;;5.60;99.90;;;;;;2076208;28;20034;-72
2023/12/20 03:36:24;;;;;;;2.00;1.90;;;5.60;99.90;;;;;;2083426;28;20029;-72
2023/12/20 03:37:24;;;;;;;2.08;1.90;;;5.60;99.90;;;;;;2086416;28;20025;-71
2023/12/20 03:38:25;;;;;;;2.00;1.80;;;5.60;99.90;;;;;;2075914;28;20049;-72
2023/12/20 03:39:25;;;;;;;2.00;1.80;;;5.60;99.90;;;;;;2083205;28;20136;-72
2023/12/20 03:40:26;;;;;;;2.08;1.88;;;5.60;99.90;;;;;;2086815;28;20032;-71
2023/12/20 03:41:27;;;;;;;2.63;1.90;;;5.60;99.90;;;;;;2075886;28;20029;-71
2023/12/20 03:42:27;;;;;;;2.15;1.80;;;5.60;99.90;;;;;;2077009;28;20035;-71
2023/12/20 03:43:28;;;;;;;2.05;1.70;;;5.60;99.90;;;;;;2075881;28;20172;-70
2023/12/20 03:44:28;;;;;;;1.92;1.70;;;5.60;99.90;;;;;;2086771;28;20502;-71
2023/12/20 03:45:29;;;;;;;2.25;1.80;;;5.60;99.90;;;;;;2083200;28;20033;-71
2023/12/20 03:46:29;;;;;;;1.90;1.70;;;5.60;99.90;;;;;;2079277;28;20041;-71
2023/12/20 03:47:30;;;;;;;1.90;1.70;;;5.60;99.90;;;;;;2079829;28;20535;-70
2023/12/20 03:48:31;;;;;;;2.00;1.75;;;5.60;99.90;;;;;;2075924;28;20545;-71
2023/12/20 03:49:31;;;;;;;1.67;1.58;;;5.60;99.90;;;;;;2078579;28;20577;-72
2023/12/20 03:50:32;;;;;;;2.25;1.73;;;5.60;99.90;;;;;;2078855;28;20037;-72
2023/12/20 03:51:32;;;;;;;1.73;1.63;;;5.60;99.90;;;;;;2076356;28;20052;-71
2023/12/20 03:52:33;;;;;;;1.60;1.50;;;5.60;99.90;;;;;;2079138;28;20021;-72
2023/12/20 03:53:33;;;;;;;1.85;1.70;;;5.60;99.90;;;;;;2079356;28;20029;-71
2023/12/20 03:54:35;;;;;;;1.92;1.75;;;5.60;99.90;;;;;;2075951;28;20029;-72
2023/12/20 03:55:36;;;;;;;2.92;1.70;;;5.60;99.90;;;;;;2078727;28;20248;-71
2023/12/20 03:56:36;;;;;;;1.83;1.65;;;5.60;99.90;;;;;;2075724;28;20179;-72
2023/12/20 03:57:37;;;;;;;3.67;1.70;;;5.60;99.90;;;;;;2075586;28;20021;-71
2023/12/20 03:58:37;;;;;;;1.70;1.60;;;5.60;99.90;;;;;;2069285;28;20065;-72
2023/12/20 03:59:38;;;;;;;1.90;1.60;;;5.60;99.90;;;;;;2078556;28;20123;-72
2023/12/20 04:00:38;;;;;;;2.45;1.60;;;5.60;99.90;;;;;;2067808;28;20041;-72
2023/12/20 04:01:43;;;;;;;3.33;1.73;;;5.60;99.90;;;;;;2077346;28;20037;-72
2023/12/20 04:02:44;;;;;;;1.80;1.60;;;5.60;99.90;;;;;;2079265;28;20033;-71
2023/12/20 04:03:44;;;;;;;1.80;1.70;;;5.70;99.90;;;;;;2077471;28;20021;-72
2023/12/20 04:04:45;;;;;;;2.03;1.55;;;5.60;99.90;;;;;;2077460;28;20025;-72
2023/12/20 04:05:45;;;;;;;1.85;1.58;;;5.60;99.90;;;;;;2079426;28;20461;-72
2023/12/20 04:06:46;;;;;;;2.13;1.80;;;5.60;99.90;;;;;;2077626;28;20106;-72
2023/12/20 04:07:46;;;;;;;1.77;1.50;;;5.60;99.90;;;;;;2077092;28;20060;-71
2023/12/20 04:08:47;;;;;;;1.90;1.70;;;5.60;99.90;;;;;;2073885;28;20670;-72
2023/12/20 04:09:48;;;;;;;2.05;1.80;;;5.60;99.90;;;;;;2069203;28;21056;-72
2023/12/20 04:10:48;;;;;;;2.67;1.80;;;5.60;99.90;;;;;;2066643;28;20571;-72
2023/12/20 04:11:49;;;;;;;2.15;1.65;;;5.60;99.90;;;;;;2066844;28;20025;-72
2023/12/20 04:12:49;;;;;;;2.25;1.60;;;5.60;99.90;;;;;;2066772;28;20026;-72
2023/12/20 04:13:50;;;;;;;2.03;1.77;;;5.60;99.90;;;;;;2077755;28;20406;-72
2023/12/20 04:14:50;;;;;;;3.42;1.63;;;5.60;99.90;;;;;;2084019;28;20043;-72
2023/12/20 04:15:52;;;;;;;3.10;1.70;;;5.70;99.90;;;;;;2083212;28;20029;-72
2023/12/20 04:16:52;;;;;;;1.80;1.70;;;5.60;99.90;;;;;;2074427;28;20480;-72
2023/12/20 04:17:53;;;;;;;2.25;1.45;;;5.60;99.90;;;;;;2078639;28;20063;-72
2023/12/20 04:18:53;;;;;;;2.25;1.90;;;5.70;99.90;;;;;;2075875;28;20037;-72
2023/12/20 04:19:54;;;;;;;2.85;1.80;;;5.70;99.90;;;;;;2082768;28;20457;-71
2023/12/20 04:20:54;;;;;;;1.60;1.50;;;5.70;99.90;;;;;;2086274;28;20422;-72
2023/12/20 04:21:55;;;;;;;1.67;1.58;;;5.60;99.90;;;;;;2077877;28;20519;-71
2023/12/20 04:22:55;;;;;;;2.88;1.60;;;5.60;99.90;;;;;;2075079;28;20428;-72
2023/12/20 04:23:56;;;;;;;2.30;1.70;;;5.70;99.90;;;;;;2074185;28;20033;-72
2023/12/20 04:24:57;;;;;;;1.98;1.70;;;5.60;99.90;;;;;;2078503;28;20033;-72
2023/12/20 04:25:57;;;;;;;2.83;1.75;;;5.70;99.90;;;;;;2075696;28;20021;-72
2023/12/20 04:26:58;;;;;;;2.00;1.80;;;5.60;99.90;;;;;;2078645;28;20025;-71
2023/12/20 04:27:58;;;;;;;1.63;1.52;;;5.70;99.90;;;;;;2077585;28;20482;-70
2023/12/20 04:28:59;;;;;;;1.65;1.55;;;5.60;99.90;;;;;;2078635;28;20110;-71
2023/12/20 04:29:59;;;;;;;2.25;1.50;;;5.60;99.90;;;;;;2075213;28;20056;-70
2023/12/20 04:31:00;;;;;;;3.17;1.90;;;5.60;99.90;;;;;;2077352;28;20125;-70
2023/12/20 04:32:00;;;;;;;1.90;1.80;;;5.60;99.90;;;;;;2084241;28;20052;-70
2023/12/20 04:33:02;;;;;;;1.90;1.80;;;5.60;99.90;;;;;;2082867;28;20033;-71
2023/12/20 04:34:02;;;;;;;2.50;1.83;;;5.60;99.90;;;;;;2079022;28;20025;-70
2023/12/20 04:35:03;;;;;;;1.88;1.70;;;5.60;99.90;;;;;;2078368;28;20029;-70
2023/12/20 04:36:04;;;;;;;4.05;1.80;;;5.60;99.90;;;;;;2074936;28;20107;-70
2023/12/20 04:37:05;;;;;;;1.92;1.63;;;5.60;99.90;;;;;;2074809;28;20017;-71
2023/12/20 04:38:05;;;;;;;3.60;2.00;;;5.60;99.90;;;;;;2077449;28;20111;-72
2023/12/20 04:39:06;;;;;;;2.17;1.92;;;5.70;99.90;;;;;;2075801;28;20378;-72
2023/12/20 04:40:08;;;;;;;2.88;1.85;;;5.70;99.90;;;;;;2077549;28;20029;-72
2023/12/20 04:41:08;;;;;;;2.13;1.80;;;5.60;99.90;;;;;;2073004;28;20033;-71
2023/12/20 04:42:09;;;;;;;2.38;2.10;;;5.60;99.90;;;;;;2075603;28;20044;-71
2023/12/20 04:43:09;;;;;;;3.47;1.80;;;5.60;99.90;;;;;;2077332;28;20037;-71
2023/12/20 04:44:10;;;;;;;1.98;1.73;;;5.60;99.90;;;;;;2078429;28;20059;-71
2023/12/20 04:45:12;;;;;;;2.10;1.90;;;5.70;99.90;;;;;;2075999;28;20180;-72
2023/12/20 04:46:13;;;;;;;2.00;1.90;;;5.70;99.90;;;;;;2074178;28;20024;-71
2023/12/20 04:47:13;;;;;;;1.85;1.70;;;5.70;99.90;;;;;;2086623;28;20585;-71
2023/12/20 04:48:14;;;;;;;2.45;1.63;;;5.70;99.90;;;;;;2084334;28;20029;-71
2023/12/20 04:49:14;;;;;;;3.55;2.20;;;5.70;99.90;;;;;;2076126;28;20033;-71
2023/12/20 04:50:15;;;;;;;2.72;1.95;;;5.70;99.90;;;;;;2079088;28;20031;-70
2023/12/20 04:51:16;;;;;;;2.65;1.80;;;5.70;99.90;;;;;;2084288;28;20029;-71
2023/12/20 04:52:16;;;;;;;2.83;1.98;;;5.70;99.90;;;;;;2082537;28;20151;-72
2023/12/20 04:53:17;;;;;;;2.53;1.95;;;5.70;99.90;;;;;;2086384;28;20295;-72
2023/12/20 04:54:17;;;;;;;2.35;1.90;;;5.70;99.90;;;;;;2084528;28;20049;-72
2023/12/20 04:55:18;;;;;;;2.60;1.80;;;5.70;99.90;;;;;;2081985;28;20044;-72
2023/12/20 04:56:18;;;;;;;2.25;1.70;;;5.70;99.90;;;;;;2076698;28;20512;-72
2023/12/20 04:57:19;;;;;;;2.95;1.90;;;5.70;99.90;;;;;;2072639;28;20060;-72
2023/12/20 04:58:20;;;;;;;1.80;1.70;;;5.70;99.90;;;;;;2081860;28;20491;-72
2023/12/20 04:59:21;;;;;;;1.50;1.40;;;5.70;99.90;;;;;;2082593;28;20029;-73
2023/12/20 05:00:21;;;;;;;2.22;1.50;;;5.70;99.90;;;;;;2073558;28;20037;-72
2023/12/20 05:01:22;;;;;;;2.30;1.60;;;5.80;99.90;;;;;;2077054;28;20116;-71
2023/12/20 05:02:23;;;;;;;1.60;1.42;;;5.80;99.90;;;;;;2083720;28;20107;-72
2023/12/20 05:03:23;;;;;;;2.35;1.70;;;5.70;99.90;;;;;;2077862;28;20021;-72
2023/12/20 05:04:24;;;;;;;1.70;1.60;;;5.70;99.90;;;;;;2075495;28;20087;-72
2023/12/20 05:05:24;;;;;;;1.70;1.60;;;5.70;99.90;;;;;;2074330;28;20053;-71
2023/12/20 05:06:25;;;;;;;1.70;1.40;;;5.70;99.90;;;;;;2078462;28;20224;-71
2023/12/20 05:07:25;;;;;;;2.70;1.58;;;5.70;99.90;;;;;;2078294;28;20242;-72
2023/12/20 05:08:26;;;;;;;2.80;1.60;;;5.70;99.90;;;;;;2076939;28;20026;-72
2023/12/20 05:09:26;;;;;;;1.80;1.58;;;5.70;99.90;;;;;;2075072;28;20051;-71
2023/12/20 05:10:27;;;;;;;1.98;1.60;;;5.70;99.90;;;;;;2078309;28;20028;-71
2023/12/20 05:11:28;;;;;;;2.17;1.73;;;5.70;99.90;;;;;;2075750;28;20549;-72
2023/12/20 05:12:28;;;;;;;2.45;1.92;;;5.70;99.90;;;;;;2078884;28;20103;-72
2023/12/20 05:13:29;;;;;;;3.13;1.88;;;5.60;99.90;;;;;;2080741;28;20029;-72
2023/12/20 05:14:30;;;;;;;3.80;1.80;;;5.70;99.90;;;;;;2075245;28;20104;-72
2023/12/20 05:15:31;;;;;;;2.22;1.85;;;5.70;99.90;;;;;;2066528;28;20026;-73
2023/12/20 05:16:31;;;;;;;3.42;1.98;;;5.70;99.90;;;;;;2062171;28;20033;-72
2023/12/20 05:17:32;;;;;;;2.05;1.85;;;5.60;99.90;;;;;;2074671;28;20026;-72
2023/12/20 05:18:32;;;;;;;2.97;1.88;;;5.70;99.90;;;;;;2075051;28;20038;-72
2023/12/20 05:19:35;;;;;;;2.55;2.00;;;5.70;99.90;;;;;;2078624;28;20421;-72
2023/12/20 05:20:35;;;;;;;2.50;2.10;;;5.70;99.90;;;;;;2078633;28;20122;-72